Bovina Center, New York
Current Conditions -  °F | °C
As of 9:55 AM on Thursday 30 Oct 2014 (Local Time) from KMSV Reporting Station
Broken Clouds Broken Clouds  
Wind Chill: 39°   Ceiling: 3400
Heat Index: 45°   Visibility: 10mi
Dew Point: 37°   Wind: 12mph
Humidity: 76%   Direction: 310°NW
Pressure: 30.01"   Gusts: NA
Location:  42.26°N, 74.78°W
Report Text: KMSV 301355Z AUTO 31010KT 10SM SCT029 BKN034 07/03 A3001 RMK AO1
Loading
Personal Weather Stations






























Interactive Weather Map
Tropical Storm Tracking
New forecast layout! Learn more

10-Day Weather Forecast

Advertisements
Track Severe Weather on mobile